This is the latest recevied weather packets stored in our database for station/object OE6ACM-14. If no packets are shown the sender has not sent any weather packets the latest 10 day(s).
| Time | Temp. | Humidity | Pressure | Rain* | Wind** | Luminosity | Snow |
|---|---|---|---|---|---|---|---|
| 1777936177 | 9.44° C | 57% | 924.3 hPa | - | - | - | - |
| 1777935877 | 9.44° C | 56% | 924.4 hPa | - | - | - | - |
| 1777935577 | 8.89° C | 57% | 924.4 hPa | - | - | - | - |
| 1777935277 | 9.44° C | 57% | 924.4 hPa | - | - | - | - |
| 1777934977 | 10° C | 56% | 924.4 hPa | - | - | - | - |
| 1777934677 | 10.56° C | 53% | 924.4 hPa | - | - | - | - |
| 1777934377 | 10.56° C | 52% | 924.4 hPa | - | - | - | - |
| 1777934077 | 10.56° C | 54% | 924.4 hPa | - | - | - | - |
| 1777933777 | 10° C | 54% | 924.5 hPa | - | - | - | - |
| 1777933477 | 10° C | 54% | 924.5 hPa | - | - | - | - |
| 1777933177 | 9.44° C | 54% | 924.4 hPa | - | - | - | - |
| 1777932877 | 11.11° C | 51% | 924.5 hPa | - | - | - | - |
| 1777932577 | 11.11° C | 51% | 924.4 hPa | - | - | - | - |
| 1777932277 | 10.56° C | 52% | 924.4 hPa | - | - | - | - |
| 1777931977 | 11.11° C | 49% | 924.3 hPa | - | - | - | - |
| 1777931677 | 11.11° C | 49% | 924.4 hPa | - | - | - | - |
| 1777931377 | 11.11° C | 51% | 924.5 hPa | - | - | - | - |
| 1777931077 | 11.67° C | 50% | 924.4 hPa | - | - | - | - |
| 1777930777 | 11.67° C | 48% | 924.4 hPa | - | - | - | - |
| 1777930477 | 11.67° C | 48% | 924.4 hPa | - | - | - | - |
| 1777930177 | 11.67° C | 48% | 924.4 hPa | - | - | - | - |
| 1777929877 | 11.67° C | 50% | 924.4 hPa | - | - | - | - |
| 1777929577 | 12.22° C | 49% | 924.5 hPa | - | - | - | - |
| 1777929277 | 12.78° C | 47% | 924.5 hPa | - | - | - | - |
| 1777928977 | 12.22° C | 48% | 924.5 hPa | - | - | - | - |
* Rain since midnight (hover to see other rain measurements)
** Current wind speed in m/s (hover to see current wind gust speed)